sensor_id;sensor_type;location;lat;lon;timestamp;temperature;humidity
15916;DHT22;8057;47.830;-3.870;2023-04-03T06:50:33;5.70;99.90
15916;DHT22;8057;47.830;-3.870;2023-04-03T08:08:57;9.20;99.90
15916;DHT22;8057;47.830;-3.870;2023-04-03T08:13:35;9.50;99.90
15916;DHT22;8057;47.830;-3.870;2023-04-03T08:17:53;9.80;99.90
15916;DHT22;8057;47.830;-3.870;2023-04-03T08:22:34;10.00;99.90
15916;DHT22;8057;47.830;-3.870;2023-04-03T08:32:05;10.60;99.90
15916;DHT22;8057;47.830;-3.870;2023-04-03T08:36:32;10.90;99.90
15916;DHT22;8057;47.830;-3.870;2023-04-03T08:40:44;11.20;99.90
15916;DHT22;8057;47.830;-3.870;2023-04-03T08:54:58;11.80;99.90
15916;DHT22;8057;47.830;-3.870;2023-04-03T08:59:14;11.90;99.90
15916;DHT22;8057;47.830;-3.870;2023-04-03T09:03:30;12.00;99.90
15916;DHT22;8057;47.830;-3.870;2023-04-03T09:07:45;12.30;99.90
15916;DHT22;8057;47.830;-3.870;2023-04-03T09:12:03;12.40;99.90
15916;DHT22;8057;47.830;-3.870;2023-04-03T09:16:43;12.60;99.90
15916;DHT22;8057;47.830;-3.870;2023-04-03T09:21:03;12.50;99.90
15916;DHT22;8057;47.830;-3.870;2023-04-03T09:25:22;12.60;99.90
15916;DHT22;8057;47.830;-3.870;2023-04-03T09:29:37;12.40;99.90
15916;DHT22;8057;47.830;-3.870;2023-04-03T09:33:50;12.60;99.90
15916;DHT22;8057;47.830;-3.870;2023-04-03T09:38:13;12.80;99.90
15916;DHT22;8057;47.830;-3.870;2023-04-03T09:42:24;12.80;99.90
15916;DHT22;8057;47.830;-3.870;2023-04-03T09:46:36;12.70;99.90
15916;DHT22;8057;47.830;-3.870;2023-04-03T09:50:59;13.00;99.90
15916;DHT22;8057;47.830;-3.870;2023-04-03T09:55:14;13.20;99.90
15916;DHT22;8057;47.830;-3.870;2023-04-03T09:59:25;13.10;99.90
15916;DHT22;8057;47.830;-3.870;2023-04-03T10:08:28;13.40;99.90
15916;DHT22;8057;47.830;-3.870;2023-04-03T10:13:04;13.60;99.90
15916;DHT22;8057;47.830;-3.870;2023-04-03T10:17:21;13.60;99.90
15916;DHT22;8057;47.830;-3.870;2023-04-03T10:21:40;13.70;99.90
15916;DHT22;8057;47.830;-3.870;2023-04-03T10:26:00;13.50;99.90
15916;DHT22;8057;47.830;-3.870;2023-04-03T10:30:21;13.50;99.90
15916;DHT22;8057;47.830;-3.870;2023-04-03T10:34:43;13.50;99.90
15916;DHT22;8057;47.830;-3.870;2023-04-03T10:39:19;13.70;99.90
15916;DHT22;8057;47.830;-3.870;2023-04-03T10:43:43;13.80;99.90
15916;DHT22;8057;47.830;-3.870;2023-04-03T10:48:09;13.80;99.90
15916;DHT22;8057;47.830;-3.870;2023-04-03T11:26:16;13.80;99.90
15916;DHT22;8057;47.830;-3.870;2023-04-03T11:31:05;13.60;99.90
15916;DHT22;8057;47.830;-3.870;2023-04-03T11:35:20;13.50;99.90
15916;DHT22;8057;47.830;-3.870;2023-04-03T11:39:31;13.70;99.90
15916;DHT22;8057;47.830;-3.870;2023-04-03T11:43:56;13.80;99.90
15916;DHT22;8057;47.830;-3.870;2023-04-03T11:48:35;14.00;99.90
15916;DHT22;8057;47.830;-3.870;2023-04-03T11:53:00;14.00;99.90
15916;DHT22;8057;47.830;-3.870;2023-04-03T11:57:50;14.10;99.90
15916;DHT22;8057;47.830;-3.870;2023-04-03T12:02:35;14.20;99.90
15916;DHT22;8057;47.830;-3.870;2023-04-03T12:07:20;14.50;99.90
15916;DHT22;8057;47.830;-3.870;2023-04-03T12:11:31;14.70;99.90
15916;DHT22;8057;47.830;-3.870;2023-04-03T12:16:02;14.80;99.90
15916;DHT22;8057;47.830;-3.870;2023-04-03T12:24:58;14.80;99.90
15916;DHT22;8057;47.830;-3.870;2023-04-03T12:34:39;14.60;99.90
15916;DHT22;8057;47.830;-3.870;2023-04-03T12:39:13;13.80;99.90
15916;DHT22;8057;47.830;-3.870;2023-04-03T12:43:37;13.50;99.90
15916;DHT22;8057;47.830;-3.870;2023-04-03T12:48:00;13.40;99.90
15916;DHT22;8057;47.830;-3.870;2023-04-03T12:52:19;13.60;99.90
15916;DHT22;8057;47.830;-3.870;2023-04-03T12:56:32;13.20;99.90
15916;DHT22;8057;47.830;-3.870;2023-04-03T13:00:42;13.20;99.90
15916;DHT22;8057;47.830;-3.870;2023-04-03T13:04:55;13.10;99.90
15916;DHT22;8057;47.830;-3.870;2023-04-03T13:09:19;13.10;99.90
15916;DHT22;8057;47.830;-3.870;2023-04-03T13:13:33;13.20;99.90
15916;DHT22;8057;47.830;-3.870;2023-04-03T13:17:44;13.20;99.90
15916;DHT22;8057;47.830;-3.870;2023-04-03T13:26:44;13.10;99.90
15916;DHT22;8057;47.830;-3.870;2023-04-03T13:31:22;13.30;99.90
15916;DHT22;8057;47.830;-3.870;2023-04-03T13:35:36;13.20;99.90
15916;DHT22;8057;47.830;-3.870;2023-04-03T13:40:10;13.00;99.90
15916;DHT22;8057;47.830;-3.870;2023-04-03T13:49:44;13.30;99.90
15916;DHT22;8057;47.830;-3.870;2023-04-03T13:58:34;13.20;99.90
15916;DHT22;8057;47.830;-3.870;2023-04-03T14:03:19;13.20;99.90
15916;DHT22;8057;47.830;-3.870;2023-04-03T14:27:02;13.10;99.90
15916;DHT22;8057;47.830;-3.870;2023-04-03T14:31:18;13.20;99.90
15916;DHT22;8057;47.830;-3.870;2023-04-03T14:35:47;12.90;99.90
15916;DHT22;8057;47.830;-3.870;2023-04-03T14:40:44;12.90;99.90
15916;DHT22;8057;47.830;-3.870;2023-04-03T14:45:03;13.20;99.90
15916;DHT22;8057;47.830;-3.870;2023-04-03T14:53:44;13.20;99.90
15916;DHT22;8057;47.830;-3.870;2023-04-03T14:57:55;13.40;99.90
15916;DHT22;8057;47.830;-3.870;2023-04-03T15:02:19;13.50;99.90
15916;DHT22;8057;47.830;-3.870;2023-04-03T15:06:32;13.40;99.90
15916;DHT22;8057;47.830;-3.870;2023-04-03T15:10:42;13.40;99.90
15916;DHT22;8057;47.830;-3.870;2023-04-03T15:14:52;13.20;99.90
15916;DHT22;8057;47.830;-3.870;2023-04-03T15:19:13;13.30;99.90
15916;DHT22;8057;47.830;-3.870;2023-04-03T15:23:40;13.20;99.90
15916;DHT22;8057;47.830;-3.870;2023-04-03T15:27:52;13.30;99.90
15916;DHT22;8057;47.830;-3.870;2023-04-03T15:32:32;13.40;99.90
15916;DHT22;8057;47.830;-3.870;2023-04-03T15:36:45;13.10;99.90
15916;DHT22;8057;47.830;-3.870;2023-04-03T15:40:55;12.90;99.90
15916;DHT22;8057;47.830;-3.870;2023-04-03T15:45:05;13.00;99.90
15916;DHT22;8057;47.830;-3.870;2023-04-03T15:49:16;12.90;99.90
15916;DHT22;8057;47.830;-3.870;2023-04-03T15:53:27;12.80;99.90
15916;DHT22;8057;47.830;-3.870;2023-04-03T15:57:42;13.10;99.90
15916;DHT22;8057;47.830;-3.870;2023-04-03T16:06:20;13.10;99.90
15916;DHT22;8057;47.830;-3.870;2023-04-03T16:10:55;12.80;99.90
15916;DHT22;8057;47.830;-3.870;2023-04-03T16:15:07;12.80;99.90
15916;DHT22;8057;47.830;-3.870;2023-04-03T16:19:19;12.70;99.90
15916;DHT22;8057;47.830;-3.870;2023-04-03T16:23:53;12.80;99.90
15916;DHT22;8057;47.830;-3.870;2023-04-03T16:28:27;12.60;99.90
15916;DHT22;8057;47.830;-3.870;2023-04-03T16:32:44;12.80;99.90
15916;DHT22;8057;47.830;-3.870;2023-04-03T16:37:06;12.90;99.90
15916;DHT22;8057;47.830;-3.870;2023-04-03T16:46:19;12.70;99.90
15916;DHT22;8057;47.830;-3.870;2023-04-03T16:56:51;12.70;99.90
15916;DHT22;8057;47.830;-3.870;2023-04-03T17:02:15;12.70;99.90
15916;DHT22;8057;47.830;-3.870;2023-04-03T17:54:01;11.40;99.90
15916;DHT22;8057;47.830;-3.870;2023-04-03T18:03:14;11.20;99.90
15916;DHT22;8057;47.830;-3.870;2023-04-03T18:17:36;10.70;99.90
15916;DHT22;8057;47.830;-3.870;2023-04-03T18:22:03;10.50;99.90
15916;DHT22;8057;47.830;-3.870;2023-04-03T18:26:18;10.40;99.90
15916;DHT22;8057;47.830;-3.870;2023-04-03T18:30:35;10.20;99.90
15916;DHT22;8057;47.830;-3.870;2023-04-03T18:39:10;9.90;99.90
15916;DHT22;8057;47.830;-3.870;2023-04-03T18:43:30;9.80;99.90
15916;DHT22;8057;47.830;-3.870;2023-04-03T18:47:49;9.60;99.90
15916;DHT22;8057;47.830;-3.870;2023-04-03T18:52:04;9.60;99.90
15916;DHT22;8057;47.830;-3.870;2023-04-03T18:56:55;9.60;99.90
15916;DHT22;8057;47.830;-3.870;2023-04-03T19:06:05;9.50;99.90
15916;DHT22;8057;47.830;-3.870;2023-04-03T19:10:22;9.40;99.90
15916;DHT22;8057;47.830;-3.870;2023-04-03T19:14:35;9.30;99.90
15916;DHT22;8057;47.830;-3.870;2023-04-03T19:18:44;9.20;99.90
15916;DHT22;8057;47.830;-3.870;2023-04-03T19:22:53;9.00;99.90
15916;DHT22;8057;47.830;-3.870;2023-04-03T19:27:03;8.80;99.90
15916;DHT22;8057;47.830;-3.870;2023-04-03T19:31:16;8.70;99.90
15916;DHT22;8057;47.830;-3.870;2023-04-03T19:35:29;8.50;99.90
15916;DHT22;8057;47.830;-3.870;2023-04-03T19:39:38;8.50;99.90
15916;DHT22;8057;47.830;-3.870;2023-04-03T19:43:47;8.40;99.90
15916;DHT22;8057;47.830;-3.870;2023-04-03T19:47:59;8.40;99.90
15916;DHT22;8057;47.830;-3.870;2023-04-03T19:52:09;8.20;99.90
15916;DHT22;8057;47.830;-3.870;2023-04-03T19:56:18;8.20;99.90
15916;DHT22;8057;47.830;-3.870;2023-04-03T20:00:30;8.10;99.90
15916;DHT22;8057;47.830;-3.870;2023-04-03T20:04:41;8.10;99.90
15916;DHT22;8057;47.830;-3.870;2023-04-03T20:08:50;8.00;99.90
15916;DHT22;8057;47.830;-3.870;2023-04-03T20:13:00;8.00;99.90
15916;DHT22;8057;47.830;-3.870;2023-04-03T20:17:11;7.90;99.90
15916;DHT22;8057;47.830;-3.870;2023-04-03T20:21:26;7.90;99.90
15916;DHT22;8057;47.830;-3.870;2023-04-03T20:25:39;7.90;99.90
15916;DHT22;8057;47.830;-3.870;2023-04-03T20:30:11;7.70;99.90
15916;DHT22;8057;47.830;-3.870;2023-04-03T20:34:23;7.40;99.90
15916;DHT22;8057;47.830;-3.870;2023-04-03T20:38:33;7.20;99.90
15916;DHT22;8057;47.830;-3.870;2023-04-03T20:42:42;7.10;99.90
15916;DHT22;8057;47.830;-3.870;2023-04-03T20:46:51;6.90;99.90
15916;DHT22;8057;47.830;-3.870;2023-04-03T20:51:08;6.80;99.90
15916;DHT22;8057;47.830;-3.870;2023-04-03T20:55:19;6.80;99.90
15916;DHT22;8057;47.830;-3.870;2023-04-03T20:59:28;6.90;99.90
15916;DHT22;8057;47.830;-3.870;2023-04-03T21:03:38;6.70;99.90
15916;DHT22;8057;47.830;-3.870;2023-04-03T21:21:32;6.50;99.90
15916;DHT22;8057;47.830;-3.870;2023-04-03T21:25:43;6.60;99.90
15916;DHT22;8057;47.830;-3.870;2023-04-03T21:29:54;6.60;99.90
15916;DHT22;8057;47.830;-3.870;2023-04-03T21:34:03;6.60;99.90
15916;DHT22;8057;47.830;-3.870;2023-04-03T21:38:14;6.60;99.90
15916;DHT22;8057;47.830;-3.870;2023-04-03T21:42:24;6.60;99.90
15916;DHT22;8057;47.830;-3.870;2023-04-03T21:46:33;6.50;99.90
15916;DHT22;8057;47.830;-3.870;2023-04-03T21:51:01;6.40;99.90
15916;DHT22;8057;47.830;-3.870;2023-04-03T21:56:18;6.30;99.90
15916;DHT22;8057;47.830;-3.870;2023-04-03T22:06:48;6.40;99.90
